Time;durP1;ratioP1;P1;durP2;ratioP2;P2;SDS_P1;SDS_P2;PMS_P1;PMS_P2;Temp;Humidity;BMP_temperature;BMP_pressure;BME280_temperature;BME280_humidity;BME280_pressure;Samples;Min_cycle;Max_cycle;Signal;HPM_P1;HPM_P2
2022/08/20 00:01:24;;;;;;;;;;;20.00;99.90;;;;;;5058584;28;20415;-78
2022/08/20 00:03:50;;;;;;;;;;;20.10;99.90;;;;;;5055821;28;19908;-78
2022/08/20 00:06:19;;;;;;;;;;;20.10;99.90;;;;;;5055379;28;19954;-79
2022/08/20 00:08:45;;;;;;;;;;;20.10;99.90;;;;;;5055713;28;19960;-78
2022/08/20 00:11:11;;;;;;;;;;;20.10;99.90;;;;;;5055422;28;19909;-78
2022/08/20 00:13:44;;;;;;;;;;;20.10;99.90;;;;;;5055270;28;19916;-78
2022/08/20 00:16:10;;;;;;;;;;;20.10;99.90;;;;;;5054779;28;19973;-71
2022/08/20 00:18:36;;;;;;;;;;;20.00;99.90;;;;;;5055282;28;19915;-71
2022/08/20 00:21:03;;;;;;;;;;;19.90;99.90;;;;;;5055290;28;20307;-78
2022/08/20 00:23:29;;;;;;;;;;;19.90;99.90;;;;;;5054581;28;19955;-78
2022/08/20 00:25:54;;;;;;;;;;;19.90;99.90;;;;;;5053880;28;19909;-78
2022/08/20 00:28:20;;;;;;;;;;;19.90;99.90;;;;;;5054696;28;19947;-71
2022/08/20 00:30:46;;;;;;;;;;;19.90;99.90;;;;;;5055097;28;20367;-71
2022/08/20 00:33:14;;;;;;;;;;;19.90;99.90;;;;;;5054472;28;19916;-78
2022/08/20 00:35:41;;;;;;;;;;;20.00;99.90;;;;;;5071333;28;19916;-79
2022/08/20 00:38:07;;;;;;;;;;;19.90;99.90;;;;;;5060455;28;20296;-78
2022/08/20 00:40:38;;;;;;;;;;;19.90;99.90;;;;;;5054863;28;19909;-78
2022/08/20 00:43:05;;;;;;;;;;;19.90;99.90;;;;;;5059255;28;19916;-71
2022/08/20 00:45:31;;;;;;;;;;;19.90;99.90;;;;;;5054873;28;19909;-78
2022/08/20 00:47:57;;;;;;;;;;;19.90;99.90;;;;;;5063933;28;19908;-78
2022/08/20 00:50:26;;;;;;;;;;;20.00;99.90;;;;;;5054793;28;20387;-78
2022/08/20 00:52:52;;;;;;;;;;;19.90;99.90;;;;;;5054888;28;19933;-78
2022/08/20 00:55:19;;;;;;;;;;;19.90;99.90;;;;;;5048784;28;20062;-71
2022/08/20 00:57:55;;;;;;;;;;;19.90;99.90;;;;;;5054259;28;20377;-71
2022/08/20 01:00:23;;;;;;;;;;;19.90;99.90;;;;;;5056801;28;19908;-78
2022/08/20 01:02:49;;;;;;;;;;;19.90;99.90;;;;;;5055650;28;19908;-78
2022/08/20 01:05:15;;;;;;;;;;;19.80;99.90;;;;;;5054723;28;20012;-78
2022/08/20 01:07:40;;;;;;;;;;;19.80;99.90;;;;;;5054203;28;19948;-70
2022/08/20 01:10:09;;;;;;;;;;;19.70;99.90;;;;;;5054456;28;19917;-78
2022/08/20 01:12:37;;;;;;;;;;;19.70;99.90;;;;;;5053723;28;19935;-78
2022/08/20 01:15:03;;;;;;;;;;;19.70;99.90;;;;;;5053622;28;20441;-78
2022/08/20 01:17:31;;;;;;;;;;;19.60;99.90;;;;;;5054067;28;20456;-78
2022/08/20 01:19:59;;;;;;;;;;;19.60;99.90;;;;;;5054113;28;20007;-78
2022/08/20 01:25:40;;;;;;;;;;;19.60;99.90;;;;;;5050690;28;19935;-78
2022/08/20 01:28:06;;;;;;;;;;;19.60;99.90;;;;;;5050355;28;19920;-78
2022/08/20 01:30:32;;;;;;;;;;;19.60;99.90;;;;;;5053753;28;19913;-78
2022/08/20 01:32:58;;;;;;;;;;;19.60;99.90;;;;;;5053902;28;20003;-78
2022/08/20 01:35:24;;;;;;;;;;;19.70;99.90;;;;;;5056639;28;20384;-71
2022/08/20 01:37:50;;;;;;;;;;;19.60;99.90;;;;;;5053719;28;19909;-78
2022/08/20 01:40:19;;;;;;;;;;;19.60;99.90;;;;;;5053967;28;20007;-78
2022/08/20 01:42:46;;;;;;;;;;;19.60;99.90;;;;;;5057279;28;19947;-78
2022/08/20 01:45:11;;;;;;;;;;;19.60;99.90;;;;;;5053755;28;19912;-78
2022/08/20 01:47:37;;;;;;;;;;;19.60;99.90;;;;;;5061932;28;19908;-71
2022/08/20 01:50:15;;;;;;;;;;;19.60;99.90;;;;;;5050789;28;19971;-71
2022/08/20 01:52:40;;;;;;;;;;;19.60;99.90;;;;;;5053593;28;19944;-78
2022/08/20 01:55:06;;;;;;;;;;;19.60;99.90;;;;;;5048560;28;19954;-78
2022/08/20 01:57:32;;;;;;;;;;;19.60;99.90;;;;;;5053077;28;20350;-78
2022/08/20 01:59:58;;;;;;;;;;;19.60;99.90;;;;;;5056676;28;19913;-71
2022/08/20 02:02:24;;;;;;;;;;;19.50;99.90;;;;;;5054558;28;19916;-71
2022/08/20 02:04:49;;;;;;;;;;;19.60;99.90;;;;;;5053475;28;19994;-78
2022/08/20 02:07:18;;;;;;;;;;;19.50;99.90;;;;;;5053297;28;19971;-78
2022/08/20 02:09:44;;;;;;;;;;;19.60;99.90;;;;;;5053303;28;19912;-78
2022/08/20 02:12:10;;;;;;;;;;;19.60;99.90;;;;;;5052630;28;19909;-71
2022/08/20 02:14:41;;;;;;;;;;;19.60;99.90;;;;;;5053030;28;19909;-71
2022/08/20 02:17:06;;;;;;;;;;;19.50;99.90;;;;;;5052778;28;20368;-78
2022/08/20 02:19:35;;;;;;;;;;;19.50;99.90;;;;;;5052745;28;19913;-78
2022/08/20 02:22:05;;;;;;;;;;;19.40;99.90;;;;;;5053404;28;19909;-78
2022/08/20 02:24:30;;;;;;;;;;;19.40;99.90;;;;;;5053016;28;20451;-78
2022/08/20 02:26:56;;;;;;;;;;;19.40;99.90;;;;;;5053092;28;19952;-71
2022/08/20 02:29:22;;;;;;;;;;;19.40;99.90;;;;;;5052164;28;20015;-78
2022/08/20 02:31:48;;;;;;;;;;;19.40;99.90;;;;;;5052135;28;19931;-78
2022/08/20 02:34:13;;;;;;;;;;;19.40;99.90;;;;;;5056236;28;19915;-78
2022/08/20 02:36:40;;;;;;;;;;;19.40;99.90;;;;;;5052988;28;19909;-77
2022/08/20 02:39:08;;;;;;;;;;;19.40;99.90;;;;;;5053117;28;20295;-76
2022/08/20 02:41:34;;;;;;;;;;;19.40;99.90;;;;;;5052991;28;19916;-71
2022/08/20 02:43:59;;;;;;;;;;;19.50;99.90;;;;;;5056238;28;19962;-78
2022/08/20 02:46:27;;;;;;;;;;;19.50;99.90;;;;;;5055870;28;19996;-78
2022/08/20 02:48:55;;;;;;;;;;;19.50;99.90;;;;;;5065071;28;19916;-77
2022/08/20 02:51:21;;;;;;;;;;;19.40;99.90;;;;;;5056866;28;20002;-71
2022/08/20 02:53:47;;;;;;;;;;;19.40;99.90;;;;;;5054677;28;19912;-70
2022/08/20 02:56:12;;;;;;;;;;;19.40;99.90;;;;;;5054997;28;19913;-78
2022/08/20 02:58:38;;;;;;;;;;;19.40;99.90;;;;;;5056576;28;19909;-78
2022/08/20 03:01:05;;;;;;;;;;;19.40;99.90;;;;;;5060284;28;19913;-78
2022/08/20 03:03:30;;;;;;;;;;;19.40;99.90;;;;;;5056931;28;20368;-78
2022/08/20 03:05:57;;;;;;;;;;;19.30;99.90;;;;;;5056720;28;19935;-78
2022/08/20 03:08:23;;;;;;;;;;;19.30;99.90;;;;;;5056822;28;20000;-78
2022/08/20 03:10:49;;;;;;;;;;;19.20;99.90;;;;;;5056551;28;20008;-78
2022/08/20 03:13:15;;;;;;;;;;;19.20;99.90;;;;;;5055942;28;19931;-78
2022/08/20 03:15:45;;;;;;;;;;;19.20;99.90;;;;;;5056455;28;20324;-78
2022/08/20 03:18:11;;;;;;;;;;;19.10;99.90;;;;;;5056299;28;20387;-71
2022/08/20 03:20:36;;;;;;;;;;;19.10;99.90;;;;;;5056252;28;19909;-78
2022/08/20 03:23:02;;;;;;;;;;;19.10;99.90;;;;;;5052930;28;20376;-78
2022/08/20 03:25:28;;;;;;;;;;;19.00;99.90;;;;;;5054088;28;19908;-71
2022/08/20 03:27:54;;;;;;;;;;;19.00;99.90;;;;;;5055923;28;19909;-78
2022/08/20 03:30:19;;;;;;;;;;;18.90;99.90;;;;;;5055562;28;20406;-71
2022/08/20 03:32:45;;;;;;;;;;;18.80;99.90;;;;;;5055851;28;20283;-78
2022/08/20 03:35:12;;;;;;;;;;;18.80;99.90;;;;;;5068052;28;19909;-78
2022/08/20 03:37:38;;;;;;;;;;;18.70;99.90;;;;;;5065245;28;20287;-78
2022/08/20 03:40:22;;;;;;;;;;;18.70;99.90;;;;;;5056073;28;19994;-78
2022/08/20 03:42:48;;;;;;;;;;;18.70;99.90;;;;;;5059838;28;19909;-78
2022/08/20 03:45:14;;;;;;;;;;;18.80;99.90;;;;;;5056065;28;19916;-71
2022/08/20 03:47:40;;;;;;;;;;;18.80;99.90;;;;;;5064437;28;20387;-78
2022/08/20 03:50:07;;;;;;;;;;;18.80;99.90;;;;;;5055778;28;19924;-78
2022/08/20 03:52:32;;;;;;;;;;;18.80;99.90;;;;;;5055994;28;19913;-78
2022/08/20 03:54:58;;;;;;;;;;;18.80;99.90;;;;;;5050573;28;19966;-70
2022/08/20 03:57:24;;;;;;;;;;;18.90;99.90;;;;;;5054796;28;19913;-71
2022/08/20 03:59:50;;;;;;;;;;;19.00;99.90;;;;;;5057682;28;20419;-71
2022/08/20 04:02:16;;;;;;;;;;;19.00;99.90;;;;;;5057163;28;20256;-71
2022/08/20 04:04:42;;;;;;;;;;;19.10;99.90;;;;;;5055696;28;19931;-78
2022/08/20 04:07:24;;;;;;;;;;;19.20;99.90;;;;;;5055674;28;19913;-77
2022/08/20 04:09:54;;;;;;;;;;;19.20;99.90;;;;;;5055514;28;19912;-71
2022/08/20 04:12:20;;;;;;;;;;;19.20;99.90;;;;;;5053856;28;19951;-72
2022/08/20 04:14:46;;;;;;;;;;;19.20;99.90;;;;;;5055249;28;20367;-78
2022/08/20 04:17:12;;;;;;;;;;;19.30;99.90;;;;;;5054506;28;20268;-78
2022/08/20 04:19:38;;;;;;;;;;;19.30;99.90;;;;;;5055024;28;19909;-78
2022/08/20 04:22:04;;;;;;;;;;;19.40;99.90;;;;;;5055379;28;19940;-78
2022/08/20 04:24:30;;;;;;;;;;;19.40;99.90;;;;;;5055171;28;20371;-71
2022/08/20 04:26:56;;;;;;;;;;;19.40;99.90;;;;;;5055256;28;20395;-78
2022/08/20 04:29:23;;;;;;;;;;;19.40;99.90;;;;;;5054359;28;20094;-78
2022/08/20 04:31:49;;;;;;;;;;;19.40;99.90;;;;;;5054210;28;20414;-78
2022/08/20 04:34:17;;;;;;;;;;;19.40;99.90;;;;;;5062707;28;19912;-78
2022/08/20 04:36:43;;;;;;;;;;;19.40;99.90;;;;;;5069020;28;20425;-78
2022/08/20 04:39:08;;;;;;;;;;;19.50;99.90;;;;;;5054545;28;20000;-78
2022/08/20 04:41:34;;;;;;;;;;;19.50;99.90;;;;;;5054775;28;19908;-78
2022/08/20 04:44:00;;;;;;;;;;;19.50;99.90;;;;;;5059250;28;19908;-78
2022/08/20 04:46:27;;;;;;;;;;;19.50;99.90;;;;;;5054903;28;19909;-78
2022/08/20 04:48:53;;;;;;;;;;;19.50;99.90;;;;;;5063628;28;20011;-70
2022/08/20 04:51:19;;;;;;;;;;;19.50;99.90;;;;;;5054897;28;20276;-78
2022/08/20 04:53:44;;;;;;;;;;;19.50;99.90;;;;;;5052817;28;19916;-78
2022/08/20 04:56:11;;;;;;;;;;;19.50;99.90;;;;;;5050899;28;19909;-78
2022/08/20 04:58:38;;;;;;;;;;;19.50;99.90;;;;;;5054228;28;20376;-78
2022/08/20 05:01:04;;;;;;;;;;;19.50;99.90;;;;;;5058798;28;20314;-78
2022/08/20 05:03:30;;;;;;;;;;;19.50;99.90;;;;;;5054774;28;19909;-70
2022/08/20 05:05:56;;;;;;;;;;;19.50;99.90;;;;;;5054550;28;20296;-78
2022/08/20 05:08:22;;;;;;;;;;;19.50;99.90;;;;;;5053871;28;19916;-77
2022/08/20 05:10:48;;;;;;;;;;;19.40;99.90;;;;;;5057643;28;19912;-77
2022/08/20 05:13:14;;;;;;;;;;;19.40;99.90;;;;;;5053966;28;20047;-78
2022/08/20 05:15:39;;;;;;;;;;;19.40;99.90;;;;;;5054521;28;19959;-78
2022/08/20 05:18:06;;;;;;;;;;;19.30;99.90;;;;;;5054194;28;19909;-70
2022/08/20 05:20:33;;;;;;;;;;;19.30;99.90;;;;;;5053889;28;19908;-77
2022/08/20 05:23:00;;;;;;;;;;;19.30;99.90;;;;;;5053928;28;20031;-78
2022/08/20 05:25:29;;;;;;;;;;;19.30;99.90;;;;;;5053949;28;19916;-77
2022/08/20 05:27:59;;;;;;;;;;;19.30;99.90;;;;;;5053812;28;19909;-78
2022/08/20 05:30:25;;;;;;;;;;;19.20;99.90;;;;;;5053833;28;20380;-70
2022/08/20 05:32:51;;;;;;;;;;;19.20;99.90;;;;;;5053215;28;20372;-78
2022/08/20 05:35:17;;;;;;;;;;;19.30;99.90;;;;;;5057022;28;19909;-78
2022/08/20 05:37:44;;;;;;;;;;;19.30;99.90;;;;;;5054043;28;19913;-71
2022/08/20 05:40:11;;;;;;;;;;;19.30;99.90;;;;;;5053517;28;19908;-71
2022/08/20 05:42:37;;;;;;;;;;;19.40;99.90;;;;;;5056022;28;19946;-78
2022/08/20 05:45:03;;;;;;;;;;;19.40;99.90;;;;;;5054461;28;19912;-78
2022/08/20 05:47:29;;;;;;;;;;;19.40;99.90;;;;;;5061041;28;20348;-78
2022/08/20 05:49:54;;;;;;;;;;;19.40;99.90;;;;;;5054028;28;19956;-78
2022/08/20 05:52:20;;;;;;;;;;;19.50;99.90;;;;;;5053892;28;20321;-78
2022/08/20 05:54:45;;;;;;;;;;;19.50;99.90;;;;;;5048755;28;20406;-70
2022/08/20 05:57:12;;;;;;;;;;;19.50;99.90;;;;;;5053475;28;19913;-78
2022/08/20 05:59:38;;;;;;;;;;;19.60;99.90;;;;;;5055796;28;19915;-78
2022/08/20 06:04:23;;;;;;;;;;;19.60;99.90;;;;;;5055234;28;19908;-78
2022/08/20 06:04:49;;;;;;;;;;;19.60;99.90;;;;;;5053351;28;19915;-78
2022/08/20 06:07:15;;;;;;;;;;;19.60;99.90;;;;;;5053335;28;19909;-70
2022/08/20 06:09:41;;;;;;;;;;;19.70;99.90;;;;;;5052932;28;20264;-78
2022/08/20 06:12:08;;;;;;;;;;;19.70;99.90;;;;;;5053346;28;20050;-78
2022/08/20 06:14:34;;;;;;;;;;;19.70;99.90;;;;;;5052996;28;19909;-70
2022/08/20 06:17:03;;;;;;;;;;;19.70;99.90;;;;;;5053547;28;19916;-78
2022/08/20 06:19:28;;;;;;;;;;;19.80;99.90;;;;;;5052658;28;20300;-78
2022/08/20 06:21:55;;;;;;;;;;;19.80;99.90;;;;;;5052852;28;19915;-78
2022/08/20 06:24:20;;;;;;;;;;;19.80;99.90;;;;;;5046826;28;20287;-78
2022/08/20 06:26:46;;;;;;;;;;;19.90;99.90;;;;;;5053082;28;19962;-78
2022/08/20 06:29:11;;;;;;;;;;;20.10;99.90;;;;;;5051964;28;19925;-78
2022/08/20 06:31:39;;;;;;;;;;;20.10;99.90;;;;;;5052397;28;20074;-78
2022/08/20 06:34:06;;;;;;;;;;;20.20;99.90;;;;;;5057799;28;19912;-71
2022/08/20 06:36:31;;;;;;;;;;;20.30;99.90;;;;;;5068049;28;20003;-71
2022/08/20 06:38:57;;;;;;;;;;;20.40;99.90;;;;;;5053020;28;19983;-78
2022/08/20 06:41:22;;;;;;;;;;;20.40;99.90;;;;;;5053012;28;19913;-78
2022/08/20 06:43:49;;;;;;;;;;;20.40;99.90;;;;;;5056972;28;19909;-78
2022/08/20 06:46:15;;;;;;;;;;;20.30;99.90;;;;;;5053181;28;19909;-70
2022/08/20 06:48:40;;;;;;;;;;;20.40;99.90;;;;;;5062000;28;20426;-71
2022/08/20 06:51:06;;;;;;;;;;;20.50;99.90;;;;;;5052840;28;19909;-78
2022/08/20 06:53:31;;;;;;;;;;;20.60;99.90;;;;;;5052577;28;19909;-77
2022/08/20 06:55:58;;;;;;;;;;;20.70;99.90;;;;;;5047626;28;19944;-71
2022/08/20 06:58:23;;;;;;;;;;;20.90;99.90;;;;;;5052331;28;20395;-77
2022/08/20 07:00:49;;;;;;;;;;;21.10;99.90;;;;;;5055728;28;19909;-70
2022/08/20 07:03:15;;;;;;;;;;;21.20;99.90;;;;;;5052794;28;20002;-75
2022/08/20 07:05:42;;;;;;;;;;;21.40;99.90;;;;;;5052621;28;19940;-78
2022/08/20 07:08:08;;;;;;;;;;;21.50;99.90;;;;;;5052591;28;19909;-78
2022/08/20 07:10:34;;;;;;;;;;;21.70;99.90;;;;;;5052732;28;19919;-78
2022/08/20 07:12:59;;;;;;;;;;;21.80;99.90;;;;;;5052328;28;19988;-70
2022/08/20 07:15:25;;;;;;;;;;;22.00;99.90;;;;;;5052129;28;19916;-77
2022/08/20 07:17:52;;;;;;;;;;;22.20;99.90;;;;;;5057799;28;19979;-78
2022/08/20 07:20:19;;;;;;;;;;;22.20;99.90;;;;;;5056278;28;20260;-78
2022/08/20 07:22:44;;;;;;;;;;;22.30;99.90;;;;;;5051355;28;19909;-78
2022/08/20 07:25:11;;;;;;;;;;;22.10;99.90;;;;;;5048328;28;19959;-71
2022/08/20 07:27:37;;;;;;;;;;;22.00;99.90;;;;;;5052168;28;19917;-78
2022/08/20 07:32:48;;;;;;;;;;;21.80;99.90;;;;;;5054316;28;19959;-78
2022/08/20 07:35:15;;;;;;;;;;;21.70;99.90;;;;;;5068018;28;19944;-78
2022/08/20 07:37:43;;;;;;;;;;;21.60;99.90;;;;;;5065142;28;19909;-78
2022/08/20 07:40:11;;;;;;;;;;;21.60;99.90;;;;;;5054436;28;19959;-71
2022/08/20 07:42:38;;;;;;;;;;;21.70;99.90;;;;;;5058655;28;19916;-78
2022/08/20 07:45:09;;;;;;;;;;;21.80;99.90;;;;;;5057494;28;20379;-78
2022/08/20 07:47:38;;;;;;;;;;;21.90;99.90;;;;;;5064254;28;20042;-78
2022/08/20 07:50:04;;;;;;;;;;;22.10;99.90;;;;;;5055763;28;19962;-71
2022/08/20 07:52:30;;;;;;;;;;;22.00;99.90;;;;;;5056037;28;19988;-72
2022/08/20 07:54:55;;;;;;;;;;;22.10;99.90;;;;;;5050669;28;19915;-71
2022/08/20 07:57:21;;;;;;;;;;;22.40;99.90;;;;;;5055948;28;19916;-78
2022/08/20 07:59:47;;;;;;;;;;;22.40;99.90;;;;;;5057884;28;19946;-78
2022/08/20 08:02:13;;;;;;;;;;;22.30;99.90;;;;;;5057357;28;20283;-78
2022/08/20 08:04:38;;;;;;;;;;;22.50;99.90;;;;;;5055453;28;19909;-71
2022/08/20 08:07:04;;;;;;;;;;;22.40;99.90;;;;;;5055969;28;19948;-72
2022/08/20 08:09:31;;;;;;;;;;;22.40;99.90;;;;;;5055437;28;20350;-79
2022/08/20 08:11:57;;;;;;;;;;;22.50;99.90;;;;;;5055567;28;20364;-72
2022/08/20 08:14:25;;;;;;;;;;;22.40;99.90;;;;;;5055119;28;19955;-78
2022/08/20 08:16:56;;;;;;;;;;;22.30;99.90;;;;;;5055767;28;19939;-71
2022/08/20 08:19:22;;;;;;;;;;;22.20;99.90;;;;;;5055096;28;19958;-71
2022/08/20 08:21:48;;;;;;;;;;;22.00;99.90;;;;;;5055412;28;20368;-78
2022/08/20 08:24:14;;;;;;;;;;;21.90;99.90;;;;;;5055115;28;20361;-79
2022/08/20 08:26:39;;;;;;;;;;;21.70;99.90;;;;;;5055368;28;20016;-78
2022/08/20 08:29:07;;;;;;;;;;;21.60;99.90;;;;;;5054600;28;19928;-78
2022/08/20 08:31:33;;;;;;;;;;;21.50;99.90;;;;;;5055198;28;19936;-71
2022/08/20 08:33:59;;;;;;;;;;;21.50;99.90;;;;;;5060585;28;20391;-78
2022/08/20 08:36:26;;;;;;;;;;;21.50;99.90;;;;;;5071410;28;20401;-78
2022/08/20 08:38:52;;;;;;;;;;;21.40;99.90;;;;;;5055119;28;19916;-78
2022/08/20 08:41:28;;;;;;;;;;;21.30;99.90;;;;;;5055084;28;19916;-78
2022/08/20 08:43:56;;;;;;;;;;;21.30;99.90;;;;;;5059554;28;19920;-72
2022/08/20 08:46:25;;;;;;;;;;;21.10;99.90;;;;;;5066589;28;19958;-78
2022/08/20 08:48:53;;;;;;;;;;;21.10;99.90;;;;;;5064400;28;19908;-78
2022/08/20 08:51:23;;;;;;;;;;;21.20;99.90;;;;;;5054922;28;19912;-78
2022/08/20 08:53:52;;;;;;;;;;;21.30;99.90;;;;;;5052117;28;19955;-78
2022/08/20 08:56:18;;;;;;;;;;;21.40;99.90;;;;;;5051618;28;19909;-72
2022/08/20 08:58:43;;;;;;;;;;;21.50;99.90;;;;;;5054646;28;19909;-72
2022/08/20 09:01:11;;;;;;;;;;;21.60;99.90;;;;;;5058851;28;19909;-78
2022/08/20 09:03:38;;;;;;;;;;;21.90;99.90;;;;;;5057274;28;19912;-78
2022/08/20 09:06:05;;;;;;;;;;;22.20;99.90;;;;;;5054784;28;19974;-79
2022/08/20 09:08:50;;;;;;;;;;;22.40;99.90;;;;;;5054873;28;19996;-71
2022/08/20 09:11:17;;;;;;;;;;;22.50;99.90;;;;;;5053402;28;19971;-71
2022/08/20 09:13:43;;;;;;;;;;;22.70;99.90;;;;;;5054040;28;19913;-78
2022/08/20 09:16:09;;;;;;;;;;;24.20;99.90;;;;;;5054413;28;19934;-79
2022/08/20 09:18:35;;;;;;;;;;;27.50;99.90;;;;;;5054114;28;19916;-79
2022/08/20 09:21:00;;;;;;;;;;;30.00;99.90;;;;;;5054296;28;19908;-80
2022/08/20 09:23:26;;;;;;;;;;;30.50;99.90;;;;;;5052558;28;19919;-79
2022/08/20 09:25:51;;;;;;;;;;;31.40;98.40;;;;;;5054180;28;19944;-79
2022/08/20 09:28:17;;;;;;;;;;;33.40;96.40;;;;;;5053813;28;19959;-77
2022/08/20 09:30:42;;;;;;;;;;;33.00;95.60;;;;;;5053840;28;20383;-79
2022/08/20 09:33:08;;;;;;;;;;;33.50;94.90;;;;;;5054837;28;19955;-78
2022/08/20 09:35:33;;;;;;;;;;;31.40;95.80;;;;;;5064510;28;19912;-78
2022/08/20 09:37:59;;;;;;;;;;;28.60;98.20;;;;;;5053691;28;20261;-79
2022/08/20 09:40:25;;;;;;;;;;;26.40;99.90;;;;;;5051831;28;19913;-79
2022/08/20 09:42:51;;;;;;;;;;;25.40;99.90;;;;;;5058359;28;19916;-80
2022/08/20 09:45:17;;;;;;;;;;;25.10;99.90;;;;;;5053826;28;20367;-80
2022/08/20 09:47:42;;;;;;;;;;;25.00;99.90;;;;;;5063086;28;19912;-72
2022/08/20 09:50:08;;;;;;;;;;;24.60;99.90;;;;;;5053646;28;19920;-72
2022/08/20 09:52:36;;;;;;;;;;;24.80;99.90;;;;;;5053688;28;19916;-80
2022/08/20 09:55:21;;;;;;;;;;;25.10;99.90;;;;;;5052049;28;20395;-80
2022/08/20 09:57:47;;;;;;;;;;;26.90;99.90;;;;;;5053077;28;20003;-80
2022/08/20 10:00:13;;;;;;;;;;;27.90;99.10;;;;;;5056242;28;19994;-80
2022/08/20 10:02:39;;;;;;;;;;;27.50;99.60;;;;;;5054721;28;19916;-72
2022/08/20 10:05:05;;;;;;;;;;;26.00;99.90;;;;;;5053638;28;20326;-72
2022/08/20 10:07:33;;;;;;;;;;;25.30;99.90;;;;;;5053387;28;19915;-81
2022/08/20 10:09:58;;;;;;;;;;;24.60;99.90;;;;;;5053443;28;20380;-72
2022/08/20 10:12:24;;;;;;;;;;;24.20;99.90;;;;;;5053269;28;19939;-72
2022/08/20 10:14:49;;;;;;;;;;;23.80;99.90;;;;;;5052201;28;20356;-79
2022/08/20 10:17:15;;;;;;;;;;;23.70;99.90;;;;;;5053301;28;20293;-72
2022/08/20 10:19:40;;;;;;;;;;;24.00;99.90;;;;;;5053189;28;20003;-81
2022/08/20 10:22:06;;;;;;;;;;;27.60;99.90;;;;;;5053141;28;19909;-79
2022/08/20 10:24:32;;;;;;;;;;;28.00;99.20;;;;;;5047688;28;19916;-80
2022/08/20 10:26:59;;;;;;;;;;;26.40;99.90;;;;;;5053153;28;19967;-72
2022/08/20 10:29:25;;;;;;;;;;;25.50;99.90;;;;;;5052545;28;20677;-72
2022/08/20 10:31:51;;;;;;;;;;;25.20;99.90;;;;;;5053037;28;19917;-81
2022/08/20 10:34:16;;;;;;;;;;;25.70;99.90;;;;;;5063351;28;19908;-79
2022/08/20 10:36:42;;;;;;;;;;;25.60;99.90;;;;;;5055249;28;20204;-80
2022/08/20 10:39:08;;;;;;;;;;;25.10;99.90;;;;;;5053171;28;19908;-80
2022/08/20 10:41:33;;;;;;;;;;;24.70;99.90;;;;;;5052901;28;19908;-72
2022/08/20 10:43:59;;;;;;;;;;;25.30;99.90;;;;;;5057039;28;19909;-80
2022/08/20 10:46:24;;;;;;;;;;;25.70;99.90;;;;;;5052970;28;19916;-80
2022/08/20 10:48:50;;;;;;;;;;;25.70;99.90;;;;;;5061905;28;20335;-80
2022/08/20 10:51:16;;;;;;;;;;;25.20;99.90;;;;;;5053006;28;20008;-80
2022/08/20 10:53:41;;;;;;;;;;;24.50;99.90;;;;;;5051263;28;19952;-73
2022/08/20 10:56:07;;;;;;;;;;;24.20;99.90;;;;;;5048750;28;19912;-72
2022/08/20 10:58:32;;;;;;;;;;;24.00;99.90;;;;;;5052312;28;19913;-72
2022/08/20 11:00:58;;;;;;;;;;;24.30;99.90;;;;;;5056696;28;19920;-80
2022/08/20 11:03:23;;;;;;;;;;;24.30;99.90;;;;;;5053125;28;19958;-72
2022/08/20 11:05:49;;;;;;;;;;;24.40;99.90;;;;;;5053058;28;20355;-72
2022/08/20 11:08:15;;;;;;;;;;;24.70;99.90;;;;;;5056775;28;19916;-72
2022/08/20 11:10:40;;;;;;;;;;;25.20;99.90;;;;;;5056784;28;20008;-80
2022/08/20 11:13:06;;;;;;;;;;;25.20;99.90;;;;;;5056337;28;20020;-81
2022/08/20 11:15:34;;;;;;;;;;;25.40;99.90;;;;;;5055462;28;19909;-81
2022/08/20 11:18:00;;;;;;;;;;;25.80;99.90;;;;;;5056485;28;19955;-72
2022/08/20 11:20:25;;;;;;;;;;;25.80;99.90;;;;;;5067996;28;19908;-72
2022/08/20 11:22:52;;;;;;;;;;;25.40;99.90;;;;;;5056350;28;19958;-81
2022/08/20 11:25:17;;;;;;;;;;;24.90;99.90;;;;;;5056544;28;20380;-80
2022/08/20 11:27:45;;;;;;;;;;;24.70;99.90;;;;;;5056017;28;19912;-81
2022/08/20 11:30:13;;;;;;;;;;;24.60;99.90;;;;;;5056005;28;20418;-81
2022/08/20 11:32:39;;;;;;;;;;;24.50;99.90;;;;;;5056395;28;20352;-71
2022/08/20 11:35:05;;;;;;;;;;;24.50;99.90;;;;;;5067624;28;19955;-72
2022/08/20 11:37:31;;;;;;;;;;;24.40;99.90;;;;;;5065852;28;19927;-80
2022/08/20 11:39:56;;;;;;;;;;;23.90;99.90;;;;;;5056149;28;20429;-72
2022/08/20 11:42:22;;;;;;;;;;;23.90;99.90;;;;;;5056832;28;19909;-80
2022/08/20 11:44:47;;;;;;;;;;;23.80;99.90;;;;;;5059342;28;19916;-72
2022/08/20 11:47:20;;;;;;;;;;;24.10;99.90;;;;;;5061206;28;20295;-72
2022/08/20 11:49:45;;;;;;;;;;;23.90;99.90;;;;;;5058473;28;19912;-72
2022/08/20 11:52:11;;;;;;;;;;;24.20;99.90;;;;;;5056197;28;20043;-80
2022/08/20 11:54:39;;;;;;;;;;;23.90;99.90;;;;;;5050162;28;19909;-80
2022/08/20 11:57:05;;;;;;;;;;;23.80;99.90;;;;;;5055661;28;19908;-80
2022/08/20 11:59:30;;;;;;;;;;;24.00;99.90;;;;;;5057517;28;19909;-80
2022/08/20 12:01:57;;;;;;;;;;;24.30;99.90;;;;;;5057081;28;19963;-73
2022/08/20 12:04:23;;;;;;;;;;;24.50;99.90;;;;;;5055787;28;19908;-80
2022/08/20 12:06:49;;;;;;;;;;;24.90;99.90;;;;;;5055870;28;19915;-72
2022/08/20 12:09:16;;;;;;;;;;;25.50;99.90;;;;;;5055457;28;19913;-80
2022/08/20 12:11:41;;;;;;;;;;;25.40;99.90;;;;;;5055338;28;19913;-72
2022/08/20 12:14:07;;;;;;;;;;;25.30;99.90;;;;;;5055454;28;19909;-72
2022/08/20 12:16:32;;;;;;;;;;;24.80;99.90;;;;;;5055525;28;19913;-79
2022/08/20 12:18:58;;;;;;;;;;;24.80;99.90;;;;;;5054615;28;19912;-80
2022/08/20 12:21:23;;;;;;;;;;;24.80;99.90;;;;;;5055557;28;19915;-79
2022/08/20 12:23:49;;;;;;;;;;;24.70;99.90;;;;;;5055114;28;19916;-72
2022/08/20 12:26:15;;;;;;;;;;;24.50;99.90;;;;;;5053975;28;19909;-72
2022/08/20 12:28:41;;;;;;;;;;;24.20;99.90;;;;;;5054870;28;20015;-82
2022/08/20 12:31:07;;;;;;;;;;;24.40;99.90;;;;;;5055287;28;20023;-81
2022/08/20 12:33:32;;;;;;;;;;;24.50;99.90;;;;;;5056508;28;19913;-81
2022/08/20 12:35:58;;;;;;;;;;;24.80;99.90;;;;;;5073255;28;20003;-73
2022/08/20 12:38:24;;;;;;;;;;;25.50;99.90;;;;;;5057308;28;20293;-72
2022/08/20 12:40:49;;;;;;;;;;;26.10;99.90;;;;;;5054516;28;20368;-80
2022/08/20 12:43:15;;;;;;;;;;;25.50;99.90;;;;;;5059096;28;19909;-81
2022/08/20 12:45:40;;;;;;;;;;;25.40;99.90;;;;;;5054954;28;19916;-72
2022/08/20 12:48:10;;;;;;;;;;;25.70;99.90;;;;;;5064143;28;19909;-82
2022/08/20 12:50:36;;;;;;;;;;;25.70;99.90;;;;;;5053587;28;19920;-72
2022/08/20 12:53:02;;;;;;;;;;;25.30;99.90;;;;;;5054807;28;20277;-73
2022/08/20 12:55:28;;;;;;;;;;;25.60;99.90;;;;;;5047454;28;19916;-81
2022/08/20 12:57:55;;;;;;;;;;;25.60;99.90;;;;;;5055630;28;19915;-82
2022/08/20 13:00:24;;;;;;;;;;;25.30;99.90;;;;;;5066280;28;20012;-72
2022/08/20 13:02:51;;;;;;;;;;;25.30;99.90;;;;;;5055856;28;19909;-72
2022/08/20 13:05:16;;;;;;;;;;;25.20;99.90;;;;;;5054486;28;19909;-72
2022/08/20 13:07:43;;;;;;;;;;;25.70;99.90;;;;;;5054533;28;19909;-81
2022/08/20 13:10:23;;;;;;;;;;;26.20;99.90;;;;;;5054288;28;19912;-79
2022/08/20 13:12:49;;;;;;;;;;;25.80;99.90;;;;;;5053951;28;19955;-72
2022/08/20 13:15:15;;;;;;;;;;;25.20;99.90;;;;;;5054395;28;19952;-80
2022/08/20 13:17:41;;;;;;;;;;;24.90;99.90;;;;;;5054224;28;20279;-72
2022/08/20 13:20:09;;;;;;;;;;;25.00;99.90;;;;;;5053114;28;19913;-73
2022/08/20 13:22:35;;;;;;;;;;;25.10;99.90;;;;;;5053917;28;19951;-79
2022/08/20 13:25:00;;;;;;;;;;;25.80;99.90;;;;;;5048081;28;20307;-80
2022/08/20 13:27:26;;;;;;;;;;;25.90;99.90;;;;;;5054086;28;19909;-72
2022/08/20 13:29:53;;;;;;;;;;;25.50;99.90;;;;;;5052696;28;20018;-73
2022/08/20 13:32:19;;;;;;;;;;;25.70;99.90;;;;;;5054003;28;19982;-72
2022/08/20 13:34:45;;;;;;;;;;;26.30;99.90;;;;;;5054707;28;19990;-72
2022/08/20 13:37:15;;;;;;;;;;;25.90;99.90;;;;;;5054546;28;20012;-73
2022/08/20 13:39:41;;;;;;;;;;;25.40;99.90;;;;;;5053265;28;19958;-72
2022/08/20 13:42:07;;;;;;;;;;;25.40;99.90;;;;;;5053853;28;20326;-72
2022/08/20 13:44:32;;;;;;;;;;;25.30;99.90;;;;;;5058194;28;20082;-72
2022/08/20 13:46:58;;;;;;;;;;;25.60;99.90;;;;;;5056782;28;19919;-72
2022/08/20 13:49:23;;;;;;;;;;;25.40;99.90;;;;;;5060314;28;19939;-72
2022/08/20 13:51:49;;;;;;;;;;;25.60;99.90;;;;;;5053666;28;19958;-82
2022/08/20 13:54:14;;;;;;;;;;;25.70;99.90;;;;;;5047549;28;20463;-72
2022/08/20 13:56:40;;;;;;;;;;;25.90;99.90;;;;;;5053078;28;19912;-72
2022/08/20 13:59:05;;;;;;;;;;;25.50;99.90;;;;;;5054369;28;19916;-72
2022/08/20 14:01:31;;;;;;;;;;;25.80;99.90;;;;;;5056733;28;19909;-72
2022/08/20 14:03:57;;;;;;;;;;;25.50;99.90;;;;;;5053659;28;20023;-73
2022/08/20 14:06:22;;;;;;;;;;;25.50;99.90;;;;;;5053415;28;19954;-72
2022/08/20 14:08:48;;;;;;;;;;;25.90;99.90;;;;;;5052321;28;20264;-72
2022/08/20 14:11:13;;;;;;;;;;;25.40;99.90;;;;;;5053233;28;19917;-72
2022/08/20 14:13:39;;;;;;;;;;;25.70;99.90;;;;;;5053225;28;19909;-72
2022/08/20 14:16:04;;;;;;;;;;;25.40;99.90;;;;;;5053351;28;19913;-72
2022/08/20 14:18:30;;;;;;;;;;;26.00;99.90;;;;;;5052980;28;19963;-81